Robertsdale, Pennsylvania
Current Conditions -  °F | °C
As of 11:10 AM on Sunday 25 Jan 2015 (Local Time) from KAOO Reporting Station
Haze Haze  
Wind Chill: 28°   Ceiling: 1200
Heat Index: 34°   Visibility: 2.5mi
Dew Point: 33°   Wind: 7mph
Humidity: 96%   Direction: 210°SSW
Pressure: 29.79"   Gusts: NA
Location:  40.18°N, 78.12°W
Report Text: KAOO 251610Z AUTO 21006KT 2 1/2SM BR OVC012 01/01 A2979 RMK AO2 T00110006
Loading
Personal Weather Stations






























Interactive Weather Map New forecast layout! Learn more

10-Day Weather Forecast

Advertisements
Track Severe Weather on mobile